createdAt,value
2018-01-28T00:01:23.015Z,18.78
2018-01-28T00:02:22.912Z,18.82
2018-01-28T00:04:15.754Z,18.75
2018-01-28T00:05:15.655Z,18.76
2018-01-28T00:07:08.501Z,18.83
2018-01-28T00:08:08.406Z,18.79
2018-01-28T00:10:01.242Z,18.82
2018-01-28T00:11:01.151Z,18.75
2018-01-28T00:12:53.995Z,18.78
2018-01-28T00:13:53.901Z,18.74
2018-01-28T00:15:46.741Z,18.71
2018-01-28T00:16:46.652Z,18.71
2018-01-28T00:18:39.510Z,18.71
2018-01-28T00:19:39.408Z,18.70
2018-01-28T00:21:32.241Z,18.78
2018-01-28T00:22:32.151Z,18.67
2018-01-28T00:24:25.038Z,18.71
2018-01-28T00:25:24.912Z,18.71
2018-01-28T00:27:17.733Z,18.75
2018-01-28T00:28:17.651Z,18.70
2018-01-28T00:30:10.551Z,18.71
2018-01-28T00:31:10.410Z,18.68
2018-01-28T00:33:03.244Z,18.71
2018-01-28T00:34:03.149Z,18.75
2018-01-28T00:35:56.028Z,18.75
2018-01-28T00:36:55.904Z,18.70
2018-01-28T00:38:48.741Z,18.81
2018-01-28T00:39:48.650Z,18.76
2018-01-28T00:41:41.509Z,18.61
2018-01-28T00:42:41.396Z,18.66
2018-01-28T00:44:34.240Z,18.67
2018-01-28T00:45:34.147Z,18.67
2018-01-28T00:47:27.013Z,18.63
2018-01-28T00:48:26.894Z,18.61
2018-01-28T00:50:20.256Z,18.60
2018-01-28T00:51:20.157Z,18.66
2018-01-28T00:53:13.039Z,18.67
2018-01-28T00:54:12.907Z,18.68
2018-01-28T00:56:05.739Z,18.66
2018-01-28T00:57:05.650Z,18.64
2018-01-28T00:58:58.502Z,18.74
2018-01-28T00:59:58.409Z,18.67
2018-01-28T01:01:51.247Z,18.67
2018-01-28T01:02:51.158Z,18.70
2018-01-28T01:04:44.017Z,18.64
2018-01-28T01:05:43.907Z,18.67
2018-01-28T01:07:36.745Z,18.63
2018-01-28T01:08:36.654Z,18.66
2018-01-28T01:10:30.038Z,18.61
2018-01-28T01:11:29.918Z,18.68
2018-01-28T01:13:22.771Z,18.68
2018-01-28T01:14:22.665Z,18.61
2018-01-28T01:16:15.517Z,18.68
2018-01-28T01:17:15.407Z,18.68
2018-01-28T01:19:08.279Z,18.61
2018-01-28T01:20:08.173Z,18.66
2018-01-28T01:22:01.561Z,18.68
2018-01-28T01:23:01.432Z,18.61
2018-01-28T01:24:54.256Z,18.68
2018-01-28T01:25:54.169Z,18.61
2018-01-28T01:27:47.035Z,18.64
2018-01-28T01:28:46.923Z,18.61
2018-01-28T01:30:39.759Z,18.57
2018-01-28T01:31:39.679Z,18.57
2018-01-28T01:33:32.532Z,18.58
2018-01-28T01:34:32.427Z,18.61
2018-01-28T01:36:25.258Z,18.61
2018-01-28T01:37:25.174Z,18.51
2018-01-28T01:39:18.042Z,18.60
2018-01-28T01:40:17.919Z,18.64
2018-01-28T01:42:10.757Z,18.64
2018-01-28T01:43:10.678Z,18.63
2018-01-28T01:45:03.561Z,18.61
2018-01-28T01:46:03.436Z,18.60
2018-01-28T01:47:56.271Z,18.52
2018-01-28T01:48:56.187Z,18.56
2018-01-28T01:50:49.018Z,18.56
2018-01-28T01:51:48.925Z,18.56
2018-01-28T01:53:41.817Z,18.56
2018-01-28T01:54:41.673Z,18.56
2018-01-28T01:56:35.089Z,18.61
2018-01-28T01:57:34.525Z,18.56
2018-01-28T01:59:27.364Z,18.61
2018-01-28T02:00:27.292Z,18.54
2018-01-28T02:02:20.120Z,18.60
2018-01-28T02:03:20.028Z,18.61
2018-01-28T02:05:12.888Z,18.61
2018-01-28T02:06:12.772Z,18.63
2018-01-28T02:08:05.625Z,18.63
2018-01-28T02:09:05.517Z,18.61
2018-01-28T02:10:58.360Z,18.66
2018-01-28T02:11:58.281Z,18.61
2018-01-28T02:13:51.130Z,18.67
2018-01-28T02:14:51.030Z,18.64
2018-01-28T02:16:43.859Z,18.56
2018-01-28T02:17:43.778Z,18.64
2018-01-28T02:19:36.645Z,18.58
2018-01-28T02:20:36.516Z,18.60
2018-01-28T02:22:29.356Z,18.58
2018-01-28T02:23:29.269Z,18.58
2018-01-28T02:25:22.241Z,18.61
2018-01-28T02:26:22.117Z,18.58
2018-01-28T02:28:14.955Z,18.63
2018-01-28T02:29:14.867Z,18.63
2018-01-28T02:31:08.777Z,18.60
2018-01-28T02:32:08.636Z,18.58
2018-01-28T02:34:01.483Z,18.67
2018-01-28T02:35:01.398Z,18.64
2018-01-28T02:36:54.276Z,18.66
2018-01-28T02:37:54.147Z,18.66
2018-01-28T02:39:46.975Z,18.63
2018-01-28T02:40:46.898Z,18.61
2018-01-28T02:42:39.874Z,18.71
2018-01-28T02:43:39.744Z,18.64
2018-01-28T02:45:32.580Z,18.67
2018-01-28T02:46:32.507Z,18.74
2018-01-28T02:48:25.343Z,18.74
2018-01-28T02:49:25.250Z,18.75
2018-01-28T02:51:18.080Z,18.79
2018-01-28T02:52:17.992Z,18.64
2018-01-28T02:54:10.873Z,18.64
2018-01-28T02:55:10.746Z,18.66
2018-01-28T02:57:03.579Z,18.68
2018-01-28T02:58:03.491Z,18.60
2018-01-28T02:59:56.351Z,18.74
2018-01-28T03:00:56.243Z,18.70
2018-01-28T03:02:49.080Z,18.58
2018-01-28T03:03:48.999Z,18.68
2018-01-28T03:05:41.840Z,18.71
2018-01-28T03:06:41.776Z,18.68
2018-01-28T03:08:34.604Z,18.66
2018-01-28T03:09:34.505Z,18.61
2018-01-28T03:11:27.371Z,18.66
2018-01-28T03:12:27.245Z,18.61
2018-01-28T03:14:20.099Z,18.63
2018-01-28T03:15:19.997Z,18.63
2018-01-28T03:17:12.863Z,18.63
2018-01-28T03:18:12.745Z,18.64
2018-01-28T03:20:05.607Z,18.68
2018-01-28T03:21:05.490Z,18.68
2018-01-28T03:22:58.351Z,18.63
2018-01-28T03:23:58.240Z,18.68
2018-01-28T03:25:51.077Z,18.75
2018-01-28T03:26:51.000Z,18.70
2018-01-28T03:28:43.847Z,18.71
2018-01-28T03:29:43.741Z,18.58
2018-01-28T03:31:36.586Z,18.63
2018-01-28T03:32:36.492Z,18.66
2018-01-28T03:34:29.364Z,18.66
2018-01-28T03:35:29.246Z,18.63
2018-01-28T03:37:22.089Z,18.63
2018-01-28T03:38:21.995Z,18.64
2018-01-28T03:40:15.357Z,18.74
2018-01-28T03:41:15.259Z,18.70
2018-01-28T03:43:08.079Z,18.67
2018-01-28T03:44:08.005Z,18.60
2018-01-28T03:46:00.888Z,18.71
2018-01-28T03:47:00.750Z,18.68
2018-01-28T03:48:53.589Z,18.67
2018-01-28T03:49:53.505Z,18.61
2018-01-28T03:51:46.643Z,18.76
2018-01-28T03:52:46.258Z,18.75
2018-01-28T03:54:39.083Z,18.76
2018-01-28T03:55:39.008Z,18.74
2018-01-28T03:57:31.955Z,18.71
2018-01-28T03:58:31.848Z,18.63
2018-01-28T04:00:24.730Z,18.74
2018-01-28T04:01:24.611Z,18.71
2018-01-28T04:03:17.447Z,18.68
2018-01-28T04:04:17.371Z,18.64
2018-01-28T04:06:10.181Z,18.70
2018-01-28T04:07:10.157Z,18.68
2018-01-28T04:09:02.949Z,18.71
2018-01-28T04:10:02.846Z,18.68
2018-01-28T04:11:55.683Z,18.67
2018-01-28T04:12:55.593Z,18.76
2018-01-28T04:14:48.461Z,18.71
2018-01-28T04:15:48.347Z,18.70
2018-01-28T04:17:41.186Z,18.61
2018-01-28T04:18:41.092Z,18.68
2018-01-28T04:20:33.958Z,18.58
2018-01-28T04:21:33.848Z,18.68
2018-01-28T04:23:26.678Z,18.68
2018-01-28T04:24:26.594Z,18.64
2018-01-28T04:26:19.457Z,18.68
2018-01-28T04:27:19.349Z,18.70
2018-01-28T04:29:12.173Z,18.67
2018-01-28T04:30:12.093Z,18.64
2018-01-28T04:32:04.939Z,18.66
2018-01-28T04:33:04.852Z,18.64
2018-01-28T04:34:57.676Z,18.64
2018-01-28T04:35:57.596Z,18.67
2018-01-28T04:37:50.457Z,18.67
2018-01-28T04:38:50.350Z,18.60
2018-01-28T04:40:43.172Z,18.68
2018-01-28T04:41:43.109Z,18.70
2018-01-28T04:43:35.955Z,18.63
2018-01-28T04:44:35.848Z,18.70
2018-01-28T04:46:28.675Z,18.68
2018-01-28T04:47:28.587Z,18.64
2018-01-28T04:49:21.439Z,18.64
2018-01-28T04:50:21.340Z,18.71
2018-01-28T04:52:14.191Z,18.64
2018-01-28T04:53:14.092Z,18.66
2018-01-28T04:55:06.948Z,18.63
2018-01-28T04:56:06.844Z,18.70
2018-01-28T04:57:59.686Z,18.67
2018-01-28T04:58:59.587Z,18.63
2018-01-28T05:00:52.459Z,18.66
2018-01-28T05:01:52.341Z,18.66
2018-01-28T05:03:45.163Z,18.75
2018-01-28T05:04:45.095Z,18.70
2018-01-28T05:06:37.932Z,18.71
2018-01-28T05:07:37.839Z,18.78
2018-01-28T05:09:30.684Z,18.75
2018-01-28T05:10:30.589Z,18.71
2018-01-28T05:12:23.453Z,18.74
2018-01-28T05:13:23.379Z,18.76
2018-01-28T05:15:16.165Z,18.70
2018-01-28T05:16:16.086Z,18.79
2018-01-28T05:18:08.951Z,18.83
2018-01-28T05:19:08.833Z,18.79
2018-01-28T05:21:01.680Z,18.79
2018-01-28T05:22:01.586Z,18.82
2018-01-28T05:23:54.453Z,18.81
2018-01-28T05:24:54.339Z,18.76
2018-01-28T05:26:47.169Z,18.83
2018-01-28T05:27:47.095Z,18.83
2018-01-28T05:29:39.966Z,18.82
2018-01-28T05:30:39.832Z,18.81
2018-01-28T05:32:32.668Z,18.86
2018-01-28T05:33:32.581Z,18.81
2018-01-28T05:35:25.459Z,18.81
2018-01-28T05:36:25.351Z,18.79
2018-01-28T05:38:18.168Z,18.82
2018-01-28T05:39:18.086Z,18.82
2018-01-28T05:41:10.951Z,18.82
2018-01-28T05:42:10.827Z,18.82
2018-01-28T05:44:03.667Z,18.79
2018-01-28T05:45:03.575Z,18.78
2018-01-28T05:46:56.453Z,18.78
2018-01-28T05:47:56.338Z,18.81
2018-01-28T05:49:49.374Z,18.81
2018-01-28T05:50:49.290Z,18.75
2018-01-28T05:52:42.134Z,18.86
2018-01-28T05:53:42.062Z,18.81
2018-01-28T05:55:34.869Z,18.83
2018-01-28T05:56:34.794Z,18.91
2018-01-28T05:58:27.634Z,18.86
2018-01-28T05:59:27.538Z,18.78
2018-01-28T06:01:20.366Z,18.89
2018-01-28T06:02:20.301Z,18.83
2018-01-28T06:04:13.128Z,18.78
2018-01-28T06:05:13.031Z,18.71
2018-01-28T06:07:05.870Z,18.86
2018-01-28T06:08:05.789Z,18.79
2018-01-28T06:09:58.654Z,18.83
2018-01-28T06:10:58.534Z,18.78
2018-01-28T06:12:51.367Z,18.83
2018-01-28T06:13:51.299Z,18.76
2018-01-28T06:15:44.148Z,18.88
2018-01-28T06:16:44.031Z,18.75
2018-01-28T06:18:36.892Z,18.86
2018-01-28T06:19:36.783Z,18.75
2018-01-28T06:21:29.733Z,18.82
2018-01-28T06:22:29.648Z,18.78
2018-01-28T06:24:22.462Z,18.83
2018-01-28T06:25:22.387Z,18.86
2018-01-28T06:27:15.240Z,18.79
2018-01-28T06:28:15.134Z,18.79
2018-01-28T06:30:07.966Z,18.78
2018-01-28T06:31:07.873Z,18.83
2018-01-28T06:33:00.761Z,18.88
2018-01-28T06:34:00.633Z,18.86
2018-01-28T06:35:53.480Z,18.78
2018-01-28T06:36:53.379Z,18.81
2018-01-28T06:38:46.233Z,18.88
2018-01-28T06:39:46.148Z,18.82
2018-01-28T06:41:38.960Z,18.86
2018-01-28T06:42:38.876Z,18.86
2018-01-28T06:44:31.746Z,18.82
2018-01-28T06:45:31.664Z,18.79
2018-01-28T06:47:24.463Z,18.85
2018-01-28T06:48:24.378Z,18.81
2018-01-28T06:50:17.250Z,18.82
2018-01-28T06:51:17.128Z,18.85
2018-01-28T06:53:10.064Z,18.91
2018-01-28T06:54:09.972Z,18.93
2018-01-28T06:56:02.825Z,18.85
2018-01-28T06:57:02.721Z,18.86
2018-01-28T06:58:57.095Z,18.91
2018-01-28T06:59:57.010Z,18.89
2018-01-28T07:01:49.877Z,18.88
2018-01-28T07:02:49.762Z,18.83
2018-01-28T07:04:42.594Z,18.88
2018-01-28T07:05:42.512Z,18.94
2018-01-28T07:07:35.898Z,18.83
2018-01-28T07:08:35.774Z,18.93
2018-01-28T07:10:28.605Z,18.97
2018-01-28T07:11:28.522Z,19.04
2018-01-28T07:13:22.298Z,19.04
2018-01-28T07:14:22.215Z,19.05
2018-01-28T07:16:15.567Z,19.13
2018-01-28T07:17:15.460Z,19.24
2018-01-28T07:19:08.838Z,19.19
2018-01-28T07:20:08.714Z,19.26
2018-01-28T07:22:01.565Z,19.22
2018-01-28T07:23:01.469Z,19.27
2018-01-28T07:24:54.348Z,19.32
2018-01-28T07:25:54.220Z,19.26
2018-01-28T07:27:47.055Z,19.35
2018-01-28T07:28:46.967Z,19.39
2018-01-28T07:30:39.811Z,19.39
2018-01-28T07:31:39.726Z,19.41
2018-01-28T07:33:32.545Z,19.47
2018-01-28T07:34:32.463Z,19.42
2018-01-28T07:36:25.346Z,19.38
2018-01-28T07:37:25.216Z,19.41
2018-01-28T07:39:18.081Z,19.44
2018-01-28T07:40:17.972Z,19.34
2018-01-28T07:42:10.826Z,19.38
2018-01-28T07:43:10.720Z,19.41
2018-01-28T07:45:03.544Z,19.27
2018-01-28T07:46:03.480Z,19.30
2018-01-28T07:47:56.326Z,19.24
2018-01-28T07:48:56.219Z,19.27
2018-01-28T07:50:49.111Z,19.22
2018-01-28T07:51:48.970Z,19.27
2018-01-28T07:53:41.916Z,19.23
2018-01-28T07:54:41.819Z,19.23
2018-01-28T07:56:34.655Z,19.24
2018-01-28T07:57:34.571Z,19.24
2018-01-28T07:59:27.447Z,19.26
2018-01-28T08:00:27.325Z,19.17
2018-01-28T08:02:20.174Z,19.22
2018-01-28T08:03:20.065Z,19.24
2018-01-28T08:05:12.919Z,19.17
2018-01-28T08:06:12.814Z,19.17
2018-01-28T08:08:05.654Z,19.19
2018-01-28T08:09:05.570Z,19.16
2018-01-28T08:10:58.413Z,19.16
2018-01-28T08:11:58.321Z,19.22
2018-01-28T08:13:51.214Z,19.20
2018-01-28T08:14:51.119Z,19.24
2018-01-28T08:16:43.925Z,19.27
2018-01-28T08:17:43.859Z,19.19
2018-01-28T08:19:36.661Z,19.20
2018-01-28T08:20:36.566Z,19.20
2018-01-28T08:22:29.409Z,19.16
2018-01-28T08:23:29.314Z,19.17
2018-01-28T08:25:22.268Z,19.22
2018-01-28T08:26:22.227Z,19.20
2018-01-28T08:28:15.032Z,19.17
2018-01-28T08:29:14.918Z,19.16
2018-01-28T08:31:08.800Z,19.16
2018-01-28T08:32:08.699Z,19.20
2018-01-28T08:34:01.566Z,19.09
2018-01-28T08:35:01.435Z,19.19
2018-01-28T08:36:54.811Z,19.20
2018-01-28T08:37:54.697Z,19.22
2018-01-28T08:39:47.571Z,19.32
2018-01-28T08:40:47.443Z,19.26
2018-01-28T08:42:40.292Z,19.32
2018-01-28T08:43:40.208Z,19.30
2018-01-28T08:45:33.067Z,19.26
2018-01-28T08:46:32.946Z,19.34
2018-01-28T08:48:25.872Z,19.30
2018-01-28T08:49:25.697Z,19.31
2018-01-28T08:51:18.569Z,19.30
2018-01-28T08:52:18.447Z,19.30
2018-01-28T08:54:11.309Z,19.26
2018-01-28T08:55:11.198Z,19.27
2018-01-28T08:57:04.070Z,19.30
2018-01-28T08:58:03.942Z,19.23
2018-01-28T08:59:56.793Z,19.26
2018-01-28T09:00:56.696Z,19.23
2018-01-28T09:02:49.794Z,19.27
2018-01-28T09:03:49.544Z,19.26
2018-01-28T09:05:42.379Z,19.30
2018-01-28T09:06:42.316Z,19.26
2018-01-28T09:08:35.182Z,19.22
2018-01-28T09:09:35.060Z,19.35
2018-01-28T09:11:27.996Z,19.38
2018-01-28T09:12:27.900Z,19.34
2018-01-28T09:14:20.768Z,19.35
2018-01-28T09:15:20.656Z,19.32
2018-01-28T09:17:13.477Z,19.31
2018-01-28T09:18:13.398Z,19.35
2018-01-28T09:20:06.247Z,19.30
2018-01-28T09:21:06.167Z,19.26
2018-01-28T09:22:58.978Z,19.26
2018-01-28T09:23:58.931Z,19.26
2018-01-28T09:25:51.757Z,19.30
2018-01-28T09:26:51.658Z,19.37
2018-01-28T09:28:44.504Z,19.26
2018-01-28T09:29:44.409Z,19.31
2018-01-28T09:31:37.435Z,19.32
2018-01-28T09:32:37.367Z,19.27
2018-01-28T09:34:30.198Z,19.32
2018-01-28T09:35:30.108Z,19.17
2018-01-28T09:37:22.973Z,19.27
2018-01-28T09:38:22.867Z,19.22
2018-01-28T09:40:15.755Z,19.27
2018-01-28T09:41:15.606Z,19.23
2018-01-28T09:43:08.561Z,19.26
2018-01-28T09:44:08.464Z,19.23
2018-01-28T09:46:01.420Z,19.30
2018-01-28T09:47:01.304Z,19.34
2018-01-28T09:48:54.151Z,19.27
2018-01-28T09:49:54.058Z,19.32
2018-01-28T09:51:46.905Z,19.24
2018-01-28T09:52:46.797Z,19.30
2018-01-28T09:54:39.647Z,19.32
2018-01-28T09:55:39.547Z,19.26
2018-01-28T09:57:32.487Z,19.20
2018-01-28T09:58:32.404Z,19.22
2018-01-28T10:00:25.526Z,19.27
2018-01-28T10:01:25.144Z,19.30
2018-01-28T10:03:17.997Z,19.26
2018-01-28T10:04:17.895Z,19.27
2018-01-28T10:06:10.967Z,19.35
2018-01-28T10:07:10.858Z,19.31
2018-01-28T10:09:03.800Z,19.41
2018-01-28T10:10:03.705Z,19.35
2018-01-28T10:11:57.178Z,19.50
2018-01-28T10:12:57.072Z,19.53
2018-01-28T10:14:49.966Z,19.57
2018-01-28T10:15:49.827Z,19.59
2018-01-28T10:17:43.262Z,19.54
2018-01-28T10:18:43.077Z,19.56
2018-01-28T10:20:35.933Z,19.59
2018-01-28T10:21:35.846Z,19.63
2018-01-28T10:23:28.693Z,19.63
2018-01-28T10:24:28.580Z,19.62
2018-01-28T10:26:21.417Z,19.63
2018-01-28T10:27:21.333Z,19.63
2018-01-28T10:29:14.177Z,19.64
2018-01-28T10:30:14.079Z,19.62
2018-01-28T10:32:07.023Z,19.68
2018-01-28T10:33:06.932Z,19.67
2018-01-28T10:34:59.849Z,19.75
2018-01-28T10:35:59.678Z,19.72
2018-01-28T10:37:52.520Z,19.75
2018-01-28T10:38:52.443Z,19.77
2018-01-28T10:40:45.395Z,19.74
2018-01-28T10:41:45.283Z,19.77
2018-01-28T10:43:38.223Z,19.78
2018-01-28T10:44:38.148Z,19.74
2018-01-28T10:46:30.984Z,19.67
2018-01-28T10:47:30.884Z,19.67
2018-01-28T10:49:23.714Z,19.60
2018-01-28T10:50:23.662Z,19.62
2018-01-28T10:52:16.504Z,19.56
2018-01-28T10:53:16.385Z,19.54
2018-01-28T10:55:09.316Z,19.59
2018-01-28T10:56:09.237Z,19.54
2018-01-28T10:58:02.104Z,19.50
2018-01-28T10:59:01.985Z,19.56
2018-01-28T11:00:54.816Z,19.56
2018-01-28T11:01:54.736Z,19.52
2018-01-28T11:03:47.688Z,19.54
2018-01-28T11:04:47.578Z,19.62
2018-01-28T11:06:40.419Z,19.56
2018-01-28T11:07:40.400Z,19.52
2018-01-28T11:09:33.201Z,19.54
2018-01-28T11:10:33.088Z,19.53
2018-01-28T11:12:25.924Z,19.47
2018-01-28T11:13:25.844Z,19.54
2018-01-28T11:15:18.697Z,19.57
2018-01-28T11:16:18.623Z,19.54
2018-01-28T11:18:11.534Z,19.49
2018-01-28T11:19:11.438Z,19.56
2018-01-28T11:21:04.326Z,19.57
2018-01-28T11:22:04.195Z,19.59
2018-01-28T11:23:57.125Z,19.52
2018-01-28T11:24:57.031Z,19.53
2018-01-28T11:26:50.011Z,19.49
2018-01-28T11:27:49.889Z,19.52
2018-01-28T11:29:42.720Z,19.53
2018-01-28T11:30:42.640Z,19.49
2018-01-28T11:32:35.512Z,19.50
2018-01-28T11:33:35.382Z,19.49
2018-01-28T11:35:28.220Z,19.49
2018-01-28T11:36:28.136Z,19.53
2018-01-28T11:38:20.992Z,19.47
2018-01-28T11:39:20.890Z,19.49
2018-01-28T11:41:13.824Z,19.45
2018-01-28T11:42:13.744Z,19.49
2018-01-28T11:44:06.585Z,19.39
2018-01-28T11:45:06.483Z,19.38
2018-01-28T11:46:59.330Z,19.38
2018-01-28T11:47:59.236Z,19.47
2018-01-28T11:49:52.185Z,19.41
2018-01-28T11:50:52.089Z,19.50
2018-01-28T11:52:45.143Z,19.50
2018-01-28T11:53:45.040Z,19.47
2018-01-28T11:55:37.992Z,19.49
2018-01-28T11:56:37.890Z,19.49
2018-01-28T11:58:30.832Z,19.42
2018-01-28T11:59:30.744Z,19.49
2018-01-28T12:01:23.720Z,19.44
2018-01-28T12:02:23.594Z,19.49
2018-01-28T12:04:16.535Z,19.50
2018-01-28T12:05:16.449Z,19.50
2018-01-28T12:07:09.827Z,19.52
2018-01-28T12:08:09.719Z,19.49
2018-01-28T12:10:02.679Z,19.53
2018-01-28T12:11:02.578Z,19.53
2018-01-28T12:12:55.519Z,19.49
2018-01-28T12:13:55.428Z,19.52
2018-01-28T12:15:48.470Z,19.47
2018-01-28T12:16:48.371Z,19.50
2018-01-28T12:18:41.363Z,19.53
2018-01-28T12:19:41.244Z,19.49
2018-01-28T12:21:34.166Z,19.53
2018-01-28T12:22:34.075Z,19.56
2018-01-28T12:24:27.039Z,19.52
2018-01-28T12:25:26.939Z,19.56
2018-01-28T12:27:21.323Z,19.49
2018-01-28T12:28:21.217Z,19.56
2018-01-28T12:30:14.176Z,19.56
2018-01-28T12:31:14.061Z,19.60
2018-01-28T12:33:07.006Z,19.56
2018-01-28T12:34:06.916Z,19.62
2018-01-28T12:35:59.887Z,19.47
2018-01-28T12:36:59.771Z,19.54
2018-01-28T12:38:52.710Z,19.49
2018-01-28T12:39:52.622Z,19.53
2018-01-28T12:41:45.583Z,19.45
2018-01-28T12:42:45.478Z,19.53
2018-01-28T12:44:38.414Z,19.53
2018-01-28T12:45:38.333Z,19.62
2018-01-28T12:47:31.311Z,19.52
2018-01-28T12:48:31.184Z,19.57
2018-01-28T12:50:24.535Z,19.54
2018-01-28T12:51:24.433Z,19.57
2018-01-28T12:53:17.406Z,19.54
2018-01-28T12:54:17.284Z,19.53
2018-01-28T12:56:10.234Z,19.62
2018-01-28T12:57:10.149Z,19.53
2018-01-28T12:59:03.518Z,19.56
2018-01-28T13:00:03.412Z,19.62
2018-01-28T13:01:56.366Z,19.56
2018-01-28T13:02:56.262Z,19.54
2018-01-28T13:04:49.217Z,19.57
2018-01-28T13:05:49.110Z,19.52
2018-01-28T13:07:42.044Z,19.56
2018-01-28T13:08:41.960Z,19.57
2018-01-28T13:10:34.938Z,19.56
2018-01-28T13:11:34.819Z,19.56
2018-01-28T13:13:27.749Z,19.52
2018-01-28T13:14:27.667Z,19.56
2018-01-28T13:16:20.620Z,19.67
2018-01-28T13:17:20.534Z,19.52
2018-01-28T13:19:13.454Z,19.54
2018-01-28T13:20:13.374Z,19.62
2018-01-28T13:22:06.532Z,19.57
2018-01-28T13:23:06.436Z,19.60
2018-01-28T13:24:59.394Z,19.59
2018-01-28T13:25:59.292Z,19.63
2018-01-28T13:27:53.675Z,19.54
2018-01-28T13:28:53.568Z,19.68
2018-01-28T13:30:46.501Z,19.67
2018-01-28T13:31:46.415Z,19.62
2018-01-28T13:33:39.400Z,19.63
2018-01-28T13:34:39.268Z,19.60
2018-01-28T13:36:32.615Z,19.57
2018-01-28T13:37:32.527Z,19.62
2018-01-28T13:39:25.953Z,19.63
2018-01-28T13:40:25.801Z,19.62
2018-01-28T13:42:18.734Z,19.64
2018-01-28T13:43:18.635Z,19.62
2018-01-28T13:45:12.006Z,19.57
2018-01-28T13:46:11.903Z,19.57
2018-01-28T13:48:04.839Z,19.63
2018-01-28T13:49:04.775Z,19.56
2018-01-28T13:50:57.715Z,19.62
2018-01-28T13:51:57.610Z,19.62
2018-01-28T13:53:50.560Z,19.63
2018-01-28T13:54:50.452Z,19.62
2018-01-28T13:56:43.422Z,19.63
2018-01-28T13:57:43.312Z,19.57
2018-01-28T13:59:36.245Z,19.63
2018-01-28T14:00:36.165Z,19.59
2018-01-28T14:02:29.126Z,19.62
2018-01-28T14:03:29.026Z,19.63
2018-01-28T14:05:21.973Z,19.57
2018-01-28T14:06:21.868Z,19.62
2018-01-28T14:08:14.828Z,19.59
2018-01-28T14:09:14.730Z,19.62
2018-01-28T14:11:08.803Z,19.68
2018-01-28T14:12:08.697Z,19.62
2018-01-28T14:14:02.073Z,19.60
2018-01-28T14:15:01.953Z,19.62
2018-01-28T14:16:54.894Z,19.62
2018-01-28T14:17:54.828Z,19.64
2018-01-28T14:19:47.788Z,19.63
2018-01-28T14:20:47.684Z,19.62
2018-01-28T14:22:40.610Z,19.57
2018-01-28T14:23:40.517Z,19.64
2018-01-28T14:25:33.491Z,19.54
2018-01-28T14:26:33.371Z,19.67
2018-01-28T14:28:26.329Z,19.67
2018-01-28T14:29:26.218Z,19.68
2018-01-28T14:31:19.206Z,19.63
2018-01-28T14:32:19.066Z,19.68
2018-01-28T14:34:12.021Z,19.59
2018-01-28T14:35:11.915Z,19.62
2018-01-28T14:37:04.892Z,19.59
2018-01-28T14:38:04.766Z,19.53
2018-01-28T14:39:57.732Z,19.62
2018-01-28T14:40:57.644Z,19.59
2018-01-28T14:42:50.591Z,19.67
2018-01-28T14:43:50.475Z,19.63
2018-01-28T14:45:43.416Z,19.62
2018-01-28T14:46:43.330Z,19.62
2018-01-28T14:48:36.299Z,19.62
2018-01-28T14:49:36.185Z,19.68
2018-01-28T14:51:29.134Z,19.67
2018-01-28T14:52:29.051Z,19.70
2018-01-28T14:54:22.012Z,19.77
2018-01-28T14:55:21.886Z,19.74
2018-01-28T14:57:14.836Z,19.70
2018-01-28T14:58:14.735Z,19.79
2018-01-28T15:00:07.699Z,19.75
2018-01-28T15:01:07.591Z,19.70
2018-01-28T15:03:00.534Z,19.74
2018-01-28T15:04:00.450Z,19.70
2018-01-28T15:05:53.421Z,19.67
2018-01-28T15:06:53.309Z,19.70
2018-01-28T15:08:46.290Z,19.67
2018-01-28T15:09:46.143Z,19.68
2018-01-28T15:11:39.096Z,19.67
2018-01-28T15:12:38.993Z,19.68
2018-01-28T15:14:31.961Z,19.60
2018-01-28T15:15:31.854Z,19.68
2018-01-28T15:17:24.808Z,19.64
2018-01-28T15:18:24.702Z,19.64
2018-01-28T15:20:17.668Z,19.63
2018-01-28T15:21:17.572Z,19.64
2018-01-28T15:23:10.529Z,19.64
2018-01-28T15:24:10.403Z,19.64
2018-01-28T15:26:03.360Z,19.59
2018-01-28T15:27:03.266Z,19.62
2018-01-28T15:28:56.210Z,19.68
2018-01-28T15:29:56.116Z,19.62
2018-01-28T15:31:49.046Z,19.67
2018-01-28T15:32:48.963Z,19.62
2018-01-28T15:34:41.924Z,19.64
2018-01-28T15:35:41.816Z,19.60
2018-01-28T15:37:34.745Z,19.52
2018-01-28T15:38:34.656Z,19.56
2018-01-28T15:40:27.617Z,19.57
2018-01-28T15:41:27.523Z,19.52
2018-01-28T15:43:20.456Z,19.57
2018-01-28T15:44:20.375Z,19.50
2018-01-28T15:46:13.325Z,19.50
2018-01-28T15:47:13.224Z,19.54
2018-01-28T15:49:06.157Z,19.56
2018-01-28T15:50:06.077Z,19.49
2018-01-28T15:51:58.940Z,19.53
2018-01-28T15:52:58.828Z,19.53
2018-01-28T15:54:51.763Z,19.62
2018-01-28T15:55:51.670Z,19.50
2018-01-28T15:57:44.535Z,19.60
2018-01-28T15:58:44.426Z,19.57
2018-01-28T16:00:37.377Z,19.59
2018-01-28T16:01:37.279Z,19.53
2018-01-28T16:03:30.135Z,19.54
2018-01-28T16:04:30.026Z,19.53
2018-01-28T16:06:22.884Z,19.53
2018-01-28T16:07:22.780Z,19.63
2018-01-28T16:09:15.662Z,19.56
2018-01-28T16:10:15.524Z,19.50
2018-01-28T16:12:08.860Z,19.64
2018-01-28T16:13:08.810Z,19.62
2018-01-28T16:15:01.645Z,19.63
2018-01-28T16:16:01.541Z,19.70
2018-01-28T16:17:54.379Z,19.71
2018-01-28T16:18:54.296Z,19.72
2018-01-28T16:20:47.139Z,19.79
2018-01-28T16:21:47.072Z,19.77
2018-01-28T16:23:39.870Z,19.81
2018-01-28T16:24:39.787Z,19.86
2018-01-28T16:26:32.669Z,19.79
2018-01-28T16:27:32.531Z,19.84
2018-01-28T16:29:25.386Z,19.89
2018-01-28T16:30:25.288Z,19.93
2018-01-28T16:32:18.181Z,19.92
2018-01-28T16:33:18.084Z,19.92
2018-01-28T16:35:11.392Z,19.90
2018-01-28T16:36:11.293Z,19.96
2018-01-28T16:38:04.144Z,19.99
2018-01-28T16:39:04.046Z,19.93
2018-01-28T16:41:04.353Z,19.96
2018-01-28T16:42:04.266Z,19.78
2018-01-28T16:43:57.667Z,19.84
2018-01-28T16:44:57.526Z,19.82
2018-01-28T16:46:50.373Z,19.79
2018-01-28T16:47:50.279Z,19.78
2018-01-28T16:49:43.137Z,19.72
2018-01-28T16:50:43.033Z,19.78
2018-01-28T16:52:38.832Z,19.77
2018-01-28T16:53:38.753Z,19.79
2018-01-28T16:55:31.594Z,19.77
2018-01-28T16:56:31.500Z,19.64
2018-01-28T16:58:44.395Z,19.64
2018-01-28T16:59:44.328Z,19.62
2018-01-28T17:01:37.709Z,19.64
2018-01-28T17:02:37.575Z,19.62
2018-01-28T17:04:30.412Z,19.68
2018-01-28T17:05:30.331Z,19.63
2018-01-28T17:07:23.711Z,19.77
2018-01-28T17:08:23.595Z,19.78
2018-01-28T17:10:16.423Z,19.72
2018-01-28T17:11:16.351Z,19.71
2018-01-28T17:13:09.394Z,19.77
2018-01-28T17:14:09.289Z,19.71
2018-01-28T17:16:02.133Z,19.67
2018-01-28T17:17:02.044Z,19.64
2018-01-28T17:18:54.921Z,19.68
2018-01-28T17:19:54.798Z,19.68
2018-01-28T17:21:47.627Z,19.68
2018-01-28T17:22:47.547Z,19.64
2018-01-28T17:24:40.398Z,19.64
2018-01-28T17:25:40.301Z,19.62
2018-01-28T17:27:33.127Z,19.59
2018-01-28T17:28:33.036Z,19.54
2018-01-28T17:30:25.920Z,19.54
2018-01-28T17:31:25.836Z,19.60
2018-01-28T17:33:18.626Z,19.60
2018-01-28T17:34:18.540Z,19.54
2018-01-28T17:36:11.422Z,19.54
2018-01-28T17:37:11.287Z,19.49
2018-01-28T17:39:04.146Z,19.54
2018-01-28T17:40:04.045Z,19.63
2018-01-28T17:41:56.896Z,19.52
2018-01-28T17:42:56.795Z,19.60
2018-01-28T17:44:50.437Z,19.52
2018-01-28T17:45:50.351Z,19.56
2018-01-28T17:47:43.205Z,19.63
2018-01-28T17:48:43.103Z,19.42
2018-01-28T17:50:35.960Z,19.56
2018-01-28T17:51:35.856Z,19.62
2018-01-28T17:53:28.706Z,19.62
2018-01-28T17:54:28.612Z,19.62
2018-01-28T17:56:21.445Z,19.70
2018-01-28T17:57:21.369Z,19.62
2018-01-28T17:59:14.205Z,19.60
2018-01-28T18:00:14.105Z,19.64
2018-01-28T18:02:06.950Z,19.63
2018-01-28T18:03:06.855Z,19.54
2018-01-28T18:04:59.708Z,19.53
2018-01-28T18:05:59.609Z,19.57
2018-01-28T18:07:52.447Z,19.60
2018-01-28T18:08:52.360Z,19.57
2018-01-28T18:10:45.233Z,19.54
2018-01-28T18:11:45.119Z,19.59
2018-01-28T18:13:38.024Z,19.53
2018-01-28T18:14:37.861Z,19.52
2018-01-28T18:16:30.741Z,19.49
2018-01-28T18:17:30.657Z,19.50
2018-01-28T18:19:23.433Z,19.50
2018-01-28T18:20:23.369Z,19.52
2018-01-28T18:22:16.202Z,19.49
2018-01-28T18:23:16.120Z,19.49
2018-01-28T18:25:08.934Z,19.53
2018-01-28T18:26:08.864Z,19.54
2018-01-28T18:28:01.746Z,19.50
2018-01-28T18:29:01.635Z,19.56
2018-01-28T18:30:54.435Z,19.47
2018-01-28T18:31:54.370Z,19.47
2018-01-28T18:33:48.247Z,19.53